Utopia, New York
Current Conditions -  °F | °C
As of 11:51 AM on Wednesday 22 Oct 2014 (Local Time) from KLGA Reporting Station
Light Rain Light Rain  
Wind Chill: 56°   Ceiling: 1800
Heat Index: 56°   Visibility: 10mi
Dew Point: 51°   Wind: 15mph
Humidity: 84%   Direction: 30°NNE
Pressure: 29.92"   Gusts: NA
Location:  40.7279°N, 73.7922°W
Report Text: KLGA 221551Z 03013KT 10SM -RA FEW012 OVC018 13/11 A2992 RMK AO2 RAE1454B17 SLP130 P0000 T01330106
Loading
Personal Weather Stations






























Interactive Weather Map
Tropical Storm Tracking
New forecast layout! Learn more

10-Day Weather Forecast

Advertisements
Track Severe Weather on mobile